sensor_id;sensor_type;location;lat;lon;timestamp;temperature;humidity
9907;DHT22;4992;51.628;6.664;2023-03-01T00:01:07;-1.90;99.90
9907;DHT22;4992;51.628;6.664;2023-03-01T00:03:33;-1.90;99.90
9907;DHT22;4992;51.628;6.664;2023-03-01T00:06:00;-1.90;99.90
9907;DHT22;4992;51.628;6.664;2023-03-01T00:08:27;-1.90;99.90
9907;DHT22;4992;51.628;6.664;2023-03-01T00:11:16;-1.90;99.90
9907;DHT22;4992;51.628;6.664;2023-03-01T00:13:43;-1.90;99.90
9907;DHT22;4992;51.628;6.664;2023-03-01T00:16:12;-1.90;99.90
9907;DHT22;4992;51.628;6.664;2023-03-01T00:18:38;-1.90;99.90
9907;DHT22;4992;51.628;6.664;2023-03-01T00:21:04;-2.00;99.90
9907;DHT22;4992;51.628;6.664;2023-03-01T00:23:31;-2.10;99.90
9907;DHT22;4992;51.628;6.664;2023-03-01T00:25:56;-2.10;99.90
9907;DHT22;4992;51.628;6.664;2023-03-01T00:28:23;-2.10;99.90
9907;DHT22;4992;51.628;6.664;2023-03-01T00:30:49;-2.20;99.90
9907;DHT22;4992;51.628;6.664;2023-03-01T00:33:14;-2.20;99.90
9907;DHT22;4992;51.628;6.664;2023-03-01T00:35:40;-2.20;99.90
9907;DHT22;4992;51.628;6.664;2023-03-01T00:38:05;-2.30;99.90
9907;DHT22;4992;51.628;6.664;2023-03-01T00:40:33;-2.30;99.90
9907;DHT22;4992;51.628;6.664;2023-03-01T00:43:00;-2.30;99.90
9907;DHT22;4992;51.628;6.664;2023-03-01T00:45:26;-2.30;99.90
9907;DHT22;4992;51.628;6.664;2023-03-01T00:47:52;-2.30;99.90
9907;DHT22;4992;51.628;6.664;2023-03-01T00:50:19;-2.30;99.90
9907;DHT22;4992;51.628;6.664;2023-03-01T00:52:45;-2.30;99.90
9907;DHT22;4992;51.628;6.664;2023-03-01T00:55:11;-2.30;99.90
9907;DHT22;4992;51.628;6.664;2023-03-01T00:57:37;-2.30;99.90
9907;DHT22;4992;51.628;6.664;2023-03-01T01:00:04;-2.30;99.90
9907;DHT22;4992;51.628;6.664;2023-03-01T01:02:33;-2.30;99.90
9907;DHT22;4992;51.628;6.664;2023-03-01T01:04:59;-2.30;99.90
9907;DHT22;4992;51.628;6.664;2023-03-01T01:07:24;-2.30;99.90
9907;DHT22;4992;51.628;6.664;2023-03-01T01:09:50;-2.40;99.90
9907;DHT22;4992;51.628;6.664;2023-03-01T01:12:15;-2.40;99.90
9907;DHT22;4992;51.628;6.664;2023-03-01T01:14:41;-2.40;99.90
9907;DHT22;4992;51.628;6.664;2023-03-01T01:17:07;-2.40;99.90
9907;DHT22;4992;51.628;6.664;2023-03-01T01:19:32;-2.40;99.90
9907;DHT22;4992;51.628;6.664;2023-03-01T01:21:58;-2.40;99.90
9907;DHT22;4992;51.628;6.664;2023-03-01T01:24:24;-2.40;99.90
9907;DHT22;4992;51.628;6.664;2023-03-01T01:26:49;-2.40;99.90
9907;DHT22;4992;51.628;6.664;2023-03-01T01:29:15;-2.40;99.90
9907;DHT22;4992;51.628;6.664;2023-03-01T01:31:42;-2.40;99.90
9907;DHT22;4992;51.628;6.664;2023-03-01T01:34:15;-2.40;99.90
9907;DHT22;4992;51.628;6.664;2023-03-01T01:36:41;-2.40;99.90
9907;DHT22;4992;51.628;6.664;2023-03-01T01:39:07;-2.50;99.90
9907;DHT22;4992;51.628;6.664;2023-03-01T01:41:33;-2.50;99.90
9907;DHT22;4992;51.628;6.664;2023-03-01T01:44:24;-2.60;99.90
9907;DHT22;4992;51.628;6.664;2023-03-01T01:52:00;-2.70;99.90
9907;DHT22;4992;51.628;6.664;2023-03-01T01:57:07;-2.70;99.90
9907;DHT22;4992;51.628;6.664;2023-03-01T01:59:34;-2.80;99.90
9907;DHT22;4992;51.628;6.664;2023-03-01T02:02:02;-2.80;99.90
9907;DHT22;4992;51.628;6.664;2023-03-01T02:04:30;-2.80;99.90
9907;DHT22;4992;51.628;6.664;2023-03-01T02:07:01;-2.80;99.90
9907;DHT22;4992;51.628;6.664;2023-03-01T02:09:30;-2.80;99.90
9907;DHT22;4992;51.628;6.664;2023-03-01T02:11:56;-2.80;99.90
9907;DHT22;4992;51.628;6.664;2023-03-01T02:14:22;-2.80;99.90
9907;DHT22;4992;51.628;6.664;2023-03-01T02:16:48;-2.80;99.90
9907;DHT22;4992;51.628;6.664;2023-03-01T02:19:33;-2.80;99.90
9907;DHT22;4992;51.628;6.664;2023-03-01T02:22:22;-2.80;99.90
9907;DHT22;4992;51.628;6.664;2023-03-01T02:27:23;-2.90;99.90
9907;DHT22;4992;51.628;6.664;2023-03-01T02:29:51;-2.80;99.90
9907;DHT22;4992;51.628;6.664;2023-03-01T02:32:17;-2.80;99.90
9907;DHT22;4992;51.628;6.664;2023-03-01T02:34:52;-2.80;99.90
9907;DHT22;4992;51.628;6.664;2023-03-01T02:37:19;-2.80;99.90
9907;DHT22;4992;51.628;6.664;2023-03-01T02:39:54;-2.80;99.90
9907;DHT22;4992;51.628;6.664;2023-03-01T02:42:25;-2.90;99.90
9907;DHT22;4992;51.628;6.664;2023-03-01T02:44:52;-2.80;99.90
9907;DHT22;4992;51.628;6.664;2023-03-01T02:47:19;-2.90;99.90
9907;DHT22;4992;51.628;6.664;2023-03-01T02:49:45;-2.90;99.90
9907;DHT22;4992;51.628;6.664;2023-03-01T02:53:08;-2.90;99.90
9907;DHT22;4992;51.628;6.664;2023-03-01T02:55:14;-2.90;99.90
9907;DHT22;4992;51.628;6.664;2023-03-01T02:57:44;-3.00;99.90
9907;DHT22;4992;51.628;6.664;2023-03-01T03:00:13;-3.00;99.90
9907;DHT22;4992;51.628;6.664;2023-03-01T03:02:45;-3.00;99.90
9907;DHT22;4992;51.628;6.664;2023-03-01T03:05:17;-3.10;99.90
9907;DHT22;4992;51.628;6.664;2023-03-01T03:07:44;-3.10;99.90
9907;DHT22;4992;51.628;6.664;2023-03-01T03:10:16;-3.10;99.90
9907;DHT22;4992;51.628;6.664;2023-03-01T03:12:48;-3.20;99.90
9907;DHT22;4992;51.628;6.664;2023-03-01T03:15:14;-3.20;99.90
9907;DHT22;4992;51.628;6.664;2023-03-01T03:17:41;-3.20;99.90
9907;DHT22;4992;51.628;6.664;2023-03-01T03:20:09;-3.20;99.90
9907;DHT22;4992;51.628;6.664;2023-03-01T03:22:38;-3.10;99.90
9907;DHT22;4992;51.628;6.664;2023-03-01T03:25:06;-3.20;99.90
9907;DHT22;4992;51.628;6.664;2023-03-01T03:27:38;-3.20;99.90
9907;DHT22;4992;51.628;6.664;2023-03-01T03:30:07;-3.20;99.90
9907;DHT22;4992;51.628;6.664;2023-03-01T03:32:38;-3.20;99.90
9907;DHT22;4992;51.628;6.664;2023-03-01T03:35:05;-3.20;99.90
9907;DHT22;4992;51.628;6.664;2023-03-01T03:37:38;-3.30;99.90
9907;DHT22;4992;51.628;6.664;2023-03-01T03:40:22;-3.20;99.90
9907;DHT22;4992;51.628;6.664;2023-03-01T03:42:48;-3.30;99.90
9907;DHT22;4992;51.628;6.664;2023-03-01T03:45:15;-3.30;99.90
9907;DHT22;4992;51.628;6.664;2023-03-01T03:47:41;-3.30;99.90
9907;DHT22;4992;51.628;6.664;2023-03-01T03:50:07;-3.40;99.90
9907;DHT22;4992;51.628;6.664;2023-03-01T03:52:33;-3.40;99.90
9907;DHT22;4992;51.628;6.664;2023-03-01T03:54:58;-3.40;99.90
9907;DHT22;4992;51.628;6.664;2023-03-01T03:57:24;-3.40;99.90
9907;DHT22;4992;51.628;6.664;2023-03-01T03:59:49;-3.50;99.90
9907;DHT22;4992;51.628;6.664;2023-03-01T04:02:15;-3.50;99.90
9907;DHT22;4992;51.628;6.664;2023-03-01T04:04:47;-3.50;99.90
9907;DHT22;4992;51.628;6.664;2023-03-01T04:07:15;-3.50;99.90
9907;DHT22;4992;51.628;6.664;2023-03-01T04:09:41;-3.50;99.90
9907;DHT22;4992;51.628;6.664;2023-03-01T04:12:08;-3.50;99.90
9907;DHT22;4992;51.628;6.664;2023-03-01T04:14:34;-3.60;99.90
9907;DHT22;4992;51.628;6.664;2023-03-01T04:16:59;-3.60;99.90
9907;DHT22;4992;51.628;6.664;2023-03-01T04:19:25;-3.60;99.90
9907;DHT22;4992;51.628;6.664;2023-03-01T04:21:52;-3.60;99.90
9907;DHT22;4992;51.628;6.664;2023-03-01T04:24:18;-3.70;99.90
9907;DHT22;4992;51.628;6.664;2023-03-01T04:26:43;-3.70;99.90
9907;DHT22;4992;51.628;6.664;2023-03-01T04:29:09;-3.70;99.90
9907;DHT22;4992;51.628;6.664;2023-03-01T04:31:35;-3.70;99.90
9907;DHT22;4992;51.628;6.664;2023-03-01T04:34:00;-3.70;99.90
9907;DHT22;4992;51.628;6.664;2023-03-01T04:36:28;-3.70;99.90
9907;DHT22;4992;51.628;6.664;2023-03-01T04:38:55;-3.70;99.90
9907;DHT22;4992;51.628;6.664;2023-03-01T04:41:22;-3.70;99.90
9907;DHT22;4992;51.628;6.664;2023-03-01T04:43:48;-3.70;99.90
9907;DHT22;4992;51.628;6.664;2023-03-01T04:46:16;-3.80;99.90
9907;DHT22;4992;51.628;6.664;2023-03-01T04:48:44;-3.80;99.90
9907;DHT22;4992;51.628;6.664;2023-03-01T04:51:11;-3.70;99.90
9907;DHT22;4992;51.628;6.664;2023-03-01T04:53:39;-3.70;99.90
9907;DHT22;4992;51.628;6.664;2023-03-01T04:56:05;-3.70;99.90
9907;DHT22;4992;51.628;6.664;2023-03-01T04:58:30;-3.80;99.90
9907;DHT22;4992;51.628;6.664;2023-03-01T05:00:56;-3.80;99.90
9907;DHT22;4992;51.628;6.664;2023-03-01T05:03:22;-3.80;99.90
9907;DHT22;4992;51.628;6.664;2023-03-01T05:05:50;-3.80;99.90
9907;DHT22;4992;51.628;6.664;2023-03-01T05:08:16;-3.80;99.90
9907;DHT22;4992;51.628;6.664;2023-03-01T05:10:49;-3.80;99.90
9907;DHT22;4992;51.628;6.664;2023-03-01T05:13:15;-3.90;99.90
9907;DHT22;4992;51.628;6.664;2023-03-01T05:15:56;-3.90;99.90
9907;DHT22;4992;51.628;6.664;2023-03-01T05:18:23;-3.90;99.90
9907;DHT22;4992;51.628;6.664;2023-03-01T05:20:55;-3.90;99.90
9907;DHT22;4992;51.628;6.664;2023-03-01T05:23:24;-3.80;99.90
9907;DHT22;4992;51.628;6.664;2023-03-01T05:25:50;-3.80;99.90
9907;DHT22;4992;51.628;6.664;2023-03-01T05:28:18;-3.80;99.90
9907;DHT22;4992;51.628;6.664;2023-03-01T05:30:45;-3.80;99.90
9907;DHT22;4992;51.628;6.664;2023-03-01T05:33:10;-3.80;99.90
9907;DHT22;4992;51.628;6.664;2023-03-01T05:35:42;-3.80;99.90
9907;DHT22;4992;51.628;6.664;2023-03-01T05:38:09;-3.80;99.90
9907;DHT22;4992;51.628;6.664;2023-03-01T05:40:39;-3.90;99.90
9907;DHT22;4992;51.628;6.664;2023-03-01T05:43:06;-3.90;99.90
9907;DHT22;4992;51.628;6.664;2023-03-01T05:45:32;-3.90;99.90
9907;DHT22;4992;51.628;6.664;2023-03-01T05:47:59;-3.90;99.90
9907;DHT22;4992;51.628;6.664;2023-03-01T05:50:27;-3.90;99.90
9907;DHT22;4992;51.628;6.664;2023-03-01T05:52:59;-3.90;99.90
9907;DHT22;4992;51.628;6.664;2023-03-01T05:55:25;-3.90;99.90
9907;DHT22;4992;51.628;6.664;2023-03-01T05:57:51;-3.90;99.90
9907;DHT22;4992;51.628;6.664;2023-03-01T06:00:18;-4.00;99.90
9907;DHT22;4992;51.628;6.664;2023-03-01T06:02:45;-4.00;99.90
9907;DHT22;4992;51.628;6.664;2023-03-01T06:05:12;-4.00;99.90
9907;DHT22;4992;51.628;6.664;2023-03-01T06:07:38;-3.90;99.90
9907;DHT22;4992;51.628;6.664;2023-03-01T06:10:05;-3.90;99.90
9907;DHT22;4992;51.628;6.664;2023-03-01T06:12:32;-4.00;99.90
9907;DHT22;4992;51.628;6.664;2023-03-01T06:14:58;-4.00;99.90
9907;DHT22;4992;51.628;6.664;2023-03-01T06:17:24;-4.00;99.90
9907;DHT22;4992;51.628;6.664;2023-03-01T06:19:50;-4.00;99.90
9907;DHT22;4992;51.628;6.664;2023-03-01T06:22:15;-4.00;99.90
9907;DHT22;4992;51.628;6.664;2023-03-01T06:24:41;-4.00;99.90
9907;DHT22;4992;51.628;6.664;2023-03-01T06:27:07;-4.00;99.90
9907;DHT22;4992;51.628;6.664;2023-03-01T06:29:32;-4.00;99.90
9907;DHT22;4992;51.628;6.664;2023-03-01T06:31:58;-3.90;99.90
9907;DHT22;4992;51.628;6.664;2023-03-01T06:34:23;-3.90;99.90
9907;DHT22;4992;51.628;6.664;2023-03-01T06:36:49;-3.90;99.90
9907;DHT22;4992;51.628;6.664;2023-03-01T06:39:14;-3.80;99.90
9907;DHT22;4992;51.628;6.664;2023-03-01T06:41:41;-3.80;99.90
9907;DHT22;4992;51.628;6.664;2023-03-01T06:44:07;-3.70;99.90
9907;DHT22;4992;51.628;6.664;2023-03-01T06:46:33;-3.70;99.90
9907;DHT22;4992;51.628;6.664;2023-03-01T06:48:58;-3.70;99.90
9907;DHT22;4992;51.628;6.664;2023-03-01T06:51:24;-3.70;99.90
9907;DHT22;4992;51.628;6.664;2023-03-01T06:53:50;-3.70;99.90
9907;DHT22;4992;51.628;6.664;2023-03-01T06:56:15;-3.70;99.90
9907;DHT22;4992;51.628;6.664;2023-03-01T06:58:41;-3.60;99.90
9907;DHT22;4992;51.628;6.664;2023-03-01T07:01:08;-3.60;99.90
9907;DHT22;4992;51.628;6.664;2023-03-01T07:03:34;-3.60;99.90
9907;DHT22;4992;51.628;6.664;2023-03-01T07:05:59;-3.50;99.90
9907;DHT22;4992;51.628;6.664;2023-03-01T07:08:25;-3.50;99.90
9907;DHT22;4992;51.628;6.664;2023-03-01T07:11:00;-3.40;99.90
9907;DHT22;4992;51.628;6.664;2023-03-01T07:13:27;-3.40;99.90
9907;DHT22;4992;51.628;6.664;2023-03-01T07:15:53;-3.30;99.90
9907;DHT22;4992;51.628;6.664;2023-03-01T07:18:18;-3.30;99.90
9907;DHT22;4992;51.628;6.664;2023-03-01T07:20:44;-3.20;99.90
9907;DHT22;4992;51.628;6.664;2023-03-01T07:23:09;-3.20;99.90
9907;DHT22;4992;51.628;6.664;2023-03-01T07:25:35;-3.20;99.90
9907;DHT22;4992;51.628;6.664;2023-03-01T07:28:02;-3.10;99.90
9907;DHT22;4992;51.628;6.664;2023-03-01T07:30:27;-3.00;99.90
9907;DHT22;4992;51.628;6.664;2023-03-01T07:32:55;-3.00;99.90
9907;DHT22;4992;51.628;6.664;2023-03-01T07:35:21;-2.90;99.90
9907;DHT22;4992;51.628;6.664;2023-03-01T07:37:47;-2.90;99.90
9907;DHT22;4992;51.628;6.664;2023-03-01T07:40:13;-2.80;99.90
9907;DHT22;4992;51.628;6.664;2023-03-01T07:42:38;-2.70;99.90
9907;DHT22;4992;51.628;6.664;2023-03-01T07:45:05;-2.60;99.90
9907;DHT22;4992;51.628;6.664;2023-03-01T07:47:31;-2.50;99.90
9907;DHT22;4992;51.628;6.664;2023-03-01T07:49:57;-2.30;99.90
9907;DHT22;4992;51.628;6.664;2023-03-01T07:52:23;-2.10;99.90
9907;DHT22;4992;51.628;6.664;2023-03-01T07:54:48;-1.90;99.90
9907;DHT22;4992;51.628;6.664;2023-03-01T07:57:14;-1.60;99.90
9907;DHT22;4992;51.628;6.664;2023-03-01T07:59:40;-1.40;99.90
9907;DHT22;4992;51.628;6.664;2023-03-01T08:02:05;-1.20;99.90
9907;DHT22;4992;51.628;6.664;2023-03-01T08:04:32;-0.90;99.90
9907;DHT22;4992;51.628;6.664;2023-03-01T08:06:58;-0.70;99.90
9907;DHT22;4992;51.628;6.664;2023-03-01T08:09:24;-0.50;99.90
9907;DHT22;4992;51.628;6.664;2023-03-01T08:11:50;-0.30;99.90
9907;DHT22;4992;51.628;6.664;2023-03-01T08:14:15;0.00;99.90
9907;DHT22;4992;51.628;6.664;2023-03-01T08:16:41;0.20;99.90
9907;DHT22;4992;51.628;6.664;2023-03-01T08:19:09;0.50;99.90
9907;DHT22;4992;51.628;6.664;2023-03-01T08:21:35;0.70;99.90
9907;DHT22;4992;51.628;6.664;2023-03-01T08:24:05;0.90;99.90
9907;DHT22;4992;51.628;6.664;2023-03-01T08:26:31;1.00;99.90
9907;DHT22;4992;51.628;6.664;2023-03-01T08:28:57;1.20;99.90
9907;DHT22;4992;51.628;6.664;2023-03-01T08:31:32;1.40;99.90
9907;DHT22;4992;51.628;6.664;2023-03-01T08:34:00;1.50;99.90
9907;DHT22;4992;51.628;6.664;2023-03-01T08:36:28;1.60;99.90
9907;DHT22;4992;51.628;6.664;2023-03-01T08:38:54;1.70;99.90
9907;DHT22;4992;51.628;6.664;2023-03-01T08:41:20;1.80;99.90
9907;DHT22;4992;51.628;6.664;2023-03-01T08:43:45;1.90;99.90
9907;DHT22;4992;51.628;6.664;2023-03-01T08:46:12;2.00;99.90
9907;DHT22;4992;51.628;6.664;2023-03-01T08:48:38;2.00;99.90
9907;DHT22;4992;51.628;6.664;2023-03-01T08:51:23;2.10;99.90
9907;DHT22;4992;51.628;6.664;2023-03-01T08:53:49;2.20;99.90
9907;DHT22;4992;51.628;6.664;2023-03-01T08:56:16;2.30;99.90
9907;DHT22;4992;51.628;6.664;2023-03-01T08:58:46;2.40;99.90
9907;DHT22;4992;51.628;6.664;2023-03-01T09:01:14;2.50;99.90
9907;DHT22;4992;51.628;6.664;2023-03-01T09:03:41;2.50;99.90
9907;DHT22;4992;51.628;6.664;2023-03-01T09:06:07;2.50;99.90
9907;DHT22;4992;51.628;6.664;2023-03-01T09:08:42;2.50;99.90
9907;DHT22;4992;51.628;6.664;2023-03-01T09:11:09;2.50;99.90
9907;DHT22;4992;51.628;6.664;2023-03-01T09:13:36;2.50;99.90
9907;DHT22;4992;51.628;6.664;2023-03-01T09:16:03;2.50;99.90
9907;DHT22;4992;51.628;6.664;2023-03-01T09:18:30;2.60;99.90
9907;DHT22;4992;51.628;6.664;2023-03-01T09:21:08;2.60;99.90
9907;DHT22;4992;51.628;6.664;2023-03-01T09:23:45;2.60;99.90
9907;DHT22;4992;51.628;6.664;2023-03-01T09:26:22;2.60;99.90
9907;DHT22;4992;51.628;6.664;2023-03-01T09:28:49;2.60;99.90
9907;DHT22;4992;51.628;6.664;2023-03-01T09:31:16;2.70;99.90
9907;DHT22;4992;51.628;6.664;2023-03-01T09:33:42;2.80;99.90
9907;DHT22;4992;51.628;6.664;2023-03-01T09:36:14;2.80;99.90
9907;DHT22;4992;51.628;6.664;2023-03-01T09:38:41;2.90;99.90
9907;DHT22;4992;51.628;6.664;2023-03-01T09:43:55;3.10;99.90
9907;DHT22;4992;51.628;6.664;2023-03-01T09:46:24;3.20;99.90
9907;DHT22;4992;51.628;6.664;2023-03-01T09:48:54;3.30;99.90
9907;DHT22;4992;51.628;6.664;2023-03-01T09:51:32;3.30;99.90
9907;DHT22;4992;51.628;6.664;2023-03-01T09:53:59;3.40;99.90
9907;DHT22;4992;51.628;6.664;2023-03-01T09:59:22;3.50;99.90
9907;DHT22;4992;51.628;6.664;2023-03-01T10:09:38;3.70;99.90
9907;DHT22;4992;51.628;6.664;2023-03-01T10:12:53;3.80;99.90
9907;DHT22;4992;51.628;6.664;2023-03-01T10:15:03;4.00;99.90
9907;DHT22;4992;51.628;6.664;2023-03-01T10:17:58;4.00;99.90
9907;DHT22;4992;51.628;6.664;2023-03-01T10:20:30;4.10;99.90
9907;DHT22;4992;51.628;6.664;2023-03-01T10:22:59;4.10;99.90
9907;DHT22;4992;51.628;6.664;2023-03-01T10:28:26;4.10;99.90
9907;DHT22;4992;51.628;6.664;2023-03-01T10:30:57;4.20;99.90
9907;DHT22;4992;51.628;6.664;2023-03-01T10:33:32;4.30;99.90
9907;DHT22;4992;51.628;6.664;2023-03-01T10:35:58;4.40;99.90
9907;DHT22;4992;51.628;6.664;2023-03-01T10:38:24;4.50;99.90
9907;DHT22;4992;51.628;6.664;2023-03-01T10:43:17;4.60;99.90
9907;DHT22;4992;51.628;6.664;2023-03-01T10:45:43;4.70;99.90
9907;DHT22;4992;51.628;6.664;2023-03-01T10:50:39;4.80;99.90
9907;DHT22;4992;51.628;6.664;2023-03-01T10:53:35;4.90;99.90
9907;DHT22;4992;51.628;6.664;2023-03-01T10:56:12;5.00;99.90
9907;DHT22;4992;51.628;6.664;2023-03-01T11:06:31;5.60;99.90
9907;DHT22;4992;51.628;6.664;2023-03-01T11:08:57;5.70;99.90
9907;DHT22;4992;51.628;6.664;2023-03-01T11:11:37;5.90;99.90
9907;DHT22;4992;51.628;6.664;2023-03-01T11:14:24;6.10;99.90
9907;DHT22;4992;51.628;6.664;2023-03-01T11:17:05;6.40;99.90
9907;DHT22;4992;51.628;6.664;2023-03-01T11:19:31;6.60;99.90
9907;DHT22;4992;51.628;6.664;2023-03-01T11:22:19;6.90;99.90
9907;DHT22;4992;51.628;6.664;2023-03-01T11:24:49;7.20;99.90
9907;DHT22;4992;51.628;6.664;2023-03-01T11:27:36;7.40;99.90
9907;DHT22;4992;51.628;6.664;2023-03-01T11:30:22;7.60;99.40
9907;DHT22;4992;51.628;6.664;2023-03-01T11:36:16;8.00;98.30
9907;DHT22;4992;51.628;6.664;2023-03-01T11:38:42;8.30;96.50
9907;DHT22;4992;51.628;6.664;2023-03-01T11:41:15;8.40;95.60
9907;DHT22;4992;51.628;6.664;2023-03-01T11:44:01;8.60;96.00
9907;DHT22;4992;51.628;6.664;2023-03-01T11:58:07;10.00;89.70
9907;DHT22;4992;51.628;6.664;2023-03-01T12:06:12;10.20;88.40
9907;DHT22;4992;51.628;6.664;2023-03-01T12:22:31;10.40;85.30
9907;DHT22;4992;51.628;6.664;2023-03-01T12:49:17;13.00;73.10
9907;DHT22;4992;51.628;6.664;2023-03-01T12:51:58;13.00;72.10
9907;DHT22;4992;51.628;6.664;2023-03-01T12:54:31;13.20;72.00
9907;DHT22;4992;51.628;6.664;2023-03-01T13:00:15;13.30;69.90
9907;DHT22;4992;51.628;6.664;2023-03-01T13:02:55;13.40;70.30
9907;DHT22;4992;51.628;6.664;2023-03-01T13:08:07;13.70;68.90
9907;DHT22;4992;51.628;6.664;2023-03-01T13:10:46;13.70;67.30
9907;DHT22;4992;51.628;6.664;2023-03-01T13:13:24;13.90;67.70
9907;DHT22;4992;51.628;6.664;2023-03-01T13:15:51;14.40;65.80
9907;DHT22;4992;51.628;6.664;2023-03-01T13:20:47;14.50;63.80
9907;DHT22;4992;51.628;6.664;2023-03-01T13:23:25;14.40;61.40
9907;DHT22;4992;51.628;6.664;2023-03-01T13:26:08;14.30;61.60
9907;DHT22;4992;51.628;6.664;2023-03-01T13:31:01;14.80;61.20
9907;DHT22;4992;51.628;6.664;2023-03-01T13:35:53;15.20;59.30
9907;DHT22;4992;51.628;6.664;2023-03-01T13:38:45;15.40;62.00
9907;DHT22;4992;51.628;6.664;2023-03-01T13:41:47;15.80;59.50
9907;DHT22;4992;51.628;6.664;2023-03-01T13:46:38;16.50;58.90
9907;DHT22;4992;51.628;6.664;2023-03-01T13:49:04;17.00;57.50
9907;DHT22;4992;51.628;6.664;2023-03-01T13:51:29;17.10;56.20
9907;DHT22;4992;51.628;6.664;2023-03-01T13:53:57;17.10;55.60
9907;DHT22;4992;51.628;6.664;2023-03-01T13:56:28;17.30;55.90
9907;DHT22;4992;51.628;6.664;2023-03-01T13:59:04;17.20;54.30
9907;DHT22;4992;51.628;6.664;2023-03-01T14:01:33;17.40;55.50
9907;DHT22;4992;51.628;6.664;2023-03-01T14:03:59;17.60;54.10
9907;DHT22;4992;51.628;6.664;2023-03-01T14:06:27;17.70;53.90
9907;DHT22;4992;51.628;6.664;2023-03-01T14:09:21;17.50;52.40
9907;DHT22;4992;51.628;6.664;2023-03-01T14:12:06;17.00;51.40
9907;DHT22;4992;51.628;6.664;2023-03-01T14:14:57;16.80;51.60
9907;DHT22;4992;51.628;6.664;2023-03-01T14:19:58;15.90;52.20
9907;DHT22;4992;51.628;6.664;2023-03-01T14:22:28;15.80;52.90
9907;DHT22;4992;51.628;6.664;2023-03-01T14:25:01;15.40;52.30
9907;DHT22;4992;51.628;6.664;2023-03-01T14:27:38;15.30;52.00
9907;DHT22;4992;51.628;6.664;2023-03-01T14:32:37;15.80;51.70
9907;DHT22;4992;51.628;6.664;2023-03-01T14:35:18;16.00;51.50
9907;DHT22;4992;51.628;6.664;2023-03-01T14:37:44;16.30;51.00
9907;DHT22;4992;51.628;6.664;2023-03-01T14:40:54;16.50;51.10
9907;DHT22;4992;51.628;6.664;2023-03-01T14:43:20;16.10;49.70
9907;DHT22;4992;51.628;6.664;2023-03-01T14:45:49;15.40;51.00
9907;DHT22;4992;51.628;6.664;2023-03-01T14:48:16;14.60;51.40
9907;DHT22;4992;51.628;6.664;2023-03-01T14:50:43;14.00;51.80
9907;DHT22;4992;51.628;6.664;2023-03-01T14:55:45;12.70;54.60
9907;DHT22;4992;51.628;6.664;2023-03-01T14:58:15;12.40;55.00
9907;DHT22;4992;51.628;6.664;2023-03-01T15:00:50;12.00;55.90
9907;DHT22;4992;51.628;6.664;2023-03-01T15:03:32;11.80;56.70
9907;DHT22;4992;51.628;6.664;2023-03-01T15:06:00;11.50;58.20
9907;DHT22;4992;51.628;6.664;2023-03-01T15:08:27;11.20;58.50
9907;DHT22;4992;51.628;6.664;2023-03-01T15:13:39;10.80;58.70
9907;DHT22;4992;51.628;6.664;2023-03-01T15:18:34;10.30;60.10
9907;DHT22;4992;51.628;6.664;2023-03-01T15:23:49;10.20;62.90
9907;DHT22;4992;51.628;6.664;2023-03-01T15:26:29;10.00;61.50
9907;DHT22;4992;51.628;6.664;2023-03-01T15:28:58;9.90;62.30
9907;DHT22;4992;51.628;6.664;2023-03-01T15:31:27;9.80;62.90
9907;DHT22;4992;51.628;6.664;2023-03-01T15:34:27;9.70;62.40
9907;DHT22;4992;51.628;6.664;2023-03-01T15:36:54;9.50;61.30
9907;DHT22;4992;51.628;6.664;2023-03-01T15:47:47;8.90;64.00
9907;DHT22;4992;51.628;6.664;2023-03-01T15:50:22;8.70;65.20
9907;DHT22;4992;51.628;6.664;2023-03-01T15:52:50;8.60;63.40
9907;DHT22;4992;51.628;6.664;2023-03-01T15:55:34;8.40;62.90
9907;DHT22;4992;51.628;6.664;2023-03-01T15:58:04;8.20;62.60
9907;DHT22;4992;51.628;6.664;2023-03-01T16:00:32;8.10;62.40
9907;DHT22;4992;51.628;6.664;2023-03-01T16:02:58;7.90;64.10
9907;DHT22;4992;51.628;6.664;2023-03-01T16:05:25;7.80;65.30
9907;DHT22;4992;51.628;6.664;2023-03-01T16:07:52;7.70;65.60
9907;DHT22;4992;51.628;6.664;2023-03-01T16:10:18;7.60;66.70
9907;DHT22;4992;51.628;6.664;2023-03-01T16:12:44;7.50;67.50
9907;DHT22;4992;51.628;6.664;2023-03-01T16:15:21;7.40;67.00
9907;DHT22;4992;51.628;6.664;2023-03-01T16:17:46;7.30;67.80
9907;DHT22;4992;51.628;6.664;2023-03-01T16:20:12;7.30;68.70
9907;DHT22;4992;51.628;6.664;2023-03-01T16:22:41;7.20;68.70
9907;DHT22;4992;51.628;6.664;2023-03-01T16:25:12;7.10;67.80
9907;DHT22;4992;51.628;6.664;2023-03-01T16:27:38;7.00;67.60
9907;DHT22;4992;51.628;6.664;2023-03-01T16:30:05;6.90;68.20
9907;DHT22;4992;51.628;6.664;2023-03-01T16:32:31;6.80;68.20
9907;DHT22;4992;51.628;6.664;2023-03-01T16:34:56;6.70;69.50
9907;DHT22;4992;51.628;6.664;2023-03-01T16:37:22;6.60;70.50
9907;DHT22;4992;51.628;6.664;2023-03-01T16:39:48;6.60;70.50
9907;DHT22;4992;51.628;6.664;2023-03-01T16:42:16;6.50;71.80
9907;DHT22;4992;51.628;6.664;2023-03-01T16:44:42;6.40;71.20
9907;DHT22;4992;51.628;6.664;2023-03-01T16:47:07;6.40;71.70
9907;DHT22;4992;51.628;6.664;2023-03-01T16:49:33;6.30;72.00
9907;DHT22;4992;51.628;6.664;2023-03-01T16:51:58;6.20;72.40
9907;DHT22;4992;51.628;6.664;2023-03-01T16:54:24;6.20;72.90
9907;DHT22;4992;51.628;6.664;2023-03-01T16:56:50;6.10;73.10
9907;DHT22;4992;51.628;6.664;2023-03-01T16:59:16;6.00;73.60
9907;DHT22;4992;51.628;6.664;2023-03-01T17:01:43;5.90;75.00
9907;DHT22;4992;51.628;6.664;2023-03-01T17:04:12;5.80;75.30
9907;DHT22;4992;51.628;6.664;2023-03-01T17:06:38;5.70;74.80
9907;DHT22;4992;51.628;6.664;2023-03-01T17:09:04;5.60;75.80
9907;DHT22;4992;51.628;6.664;2023-03-01T17:11:29;5.60;76.50
9907;DHT22;4992;51.628;6.664;2023-03-01T17:13:55;5.50;76.40
9907;DHT22;4992;51.628;6.664;2023-03-01T17:16:21;5.40;78.50
9907;DHT22;4992;51.628;6.664;2023-03-01T17:18:47;5.30;77.60
9907;DHT22;4992;51.628;6.664;2023-03-01T17:21:14;5.20;79.00
9907;DHT22;4992;51.628;6.664;2023-03-01T17:23:42;5.20;78.90
9907;DHT22;4992;51.628;6.664;2023-03-01T17:26:08;5.10;79.30
9907;DHT22;4992;51.628;6.664;2023-03-01T17:28:35;5.00;79.60
9907;DHT22;4992;51.628;6.664;2023-03-01T17:31:02;4.90;80.30
9907;DHT22;4992;51.628;6.664;2023-03-01T17:33:29;4.90;81.00
9907;DHT22;4992;51.628;6.664;2023-03-01T17:35:58;4.70;80.70
9907;DHT22;4992;51.628;6.664;2023-03-01T17:38:24;4.70;81.70
9907;DHT22;4992;51.628;6.664;2023-03-01T17:40:49;4.60;81.30
9907;DHT22;4992;51.628;6.664;2023-03-01T17:43:16;4.50;83.30
9907;DHT22;4992;51.628;6.664;2023-03-01T17:45:43;4.50;82.90
9907;DHT22;4992;51.628;6.664;2023-03-01T17:48:12;4.40;82.80
9907;DHT22;4992;51.628;6.664;2023-03-01T17:50:38;4.30;83.70
9907;DHT22;4992;51.628;6.664;2023-03-01T17:53:05;4.20;85.00
9907;DHT22;4992;51.628;6.664;2023-03-01T17:55:40;4.10;85.30
9907;DHT22;4992;51.628;6.664;2023-03-01T17:58:07;4.10;85.60
9907;DHT22;4992;51.628;6.664;2023-03-01T18:00:33;4.00;86.40
9907;DHT22;4992;51.628;6.664;2023-03-01T18:02:59;4.00;86.10
9907;DHT22;4992;51.628;6.664;2023-03-01T18:05:25;3.90;86.70
9907;DHT22;4992;51.628;6.664;2023-03-01T18:07:52;3.80;86.00
9907;DHT22;4992;51.628;6.664;2023-03-01T18:10:19;3.70;86.40
9907;DHT22;4992;51.628;6.664;2023-03-01T18:12:44;3.60;86.20
9907;DHT22;4992;51.628;6.664;2023-03-01T18:15:10;3.50;87.80
9907;DHT22;4992;51.628;6.664;2023-03-01T18:17:36;3.50;88.10
9907;DHT22;4992;51.628;6.664;2023-03-01T18:20:03;3.40;88.90
9907;DHT22;4992;51.628;6.664;2023-03-01T18:22:30;3.40;89.00
9907;DHT22;4992;51.628;6.664;2023-03-01T18:24:56;3.30;89.00
9907;DHT22;4992;51.628;6.664;2023-03-01T18:27:22;3.20;89.00
9907;DHT22;4992;51.628;6.664;2023-03-01T18:29:48;3.10;90.10
9907;DHT22;4992;51.628;6.664;2023-03-01T18:32:13;3.20;90.90
9907;DHT22;4992;51.628;6.664;2023-03-01T18:34:39;3.10;91.30
9907;DHT22;4992;51.628;6.664;2023-03-01T18:37:05;3.10;91.20